sensor_id;sensor_type;location;lat;lon;timestamp;pressure;altitude;pressure_sealevel;temperature;humidity
2397;BME280;1209;48.410;9.054;2023-04-26T00:00:43;96243.47;;;6.77;100.00
2397;BME280;1209;48.410;9.054;2023-04-26T00:03:10;96239.75;;;6.79;100.00
2397;BME280;1209;48.410;9.054;2023-04-26T00:05:37;96240.88;;;6.77;100.00
2397;BME280;1209;48.410;9.054;2023-04-26T00:08:02;96243.19;;;6.62;100.00
2397;BME280;1209;48.410;9.054;2023-04-26T00:10:29;96241.38;;;6.80;100.00
2397;BME280;1209;48.410;9.054;2023-04-26T00:12:54;96244.91;;;6.71;100.00
2397;BME280;1209;48.410;9.054;2023-04-26T00:15:20;96245.41;;;6.75;100.00
2397;BME280;1209;48.410;9.054;2023-04-26T00:17:45;96238.59;;;6.74;100.00
2397;BME280;1209;48.410;9.054;2023-04-26T00:20:11;96238.28;;;6.77;100.00
2397;BME280;1209;48.410;9.054;2023-04-26T00:22:37;96243.56;;;6.67;100.00
2397;BME280;1209;48.410;9.054;2023-04-26T00:25:04;96243.28;;;6.70;100.00
2397;BME280;1209;48.410;9.054;2023-04-26T00:27:29;96248.97;;;6.74;100.00
2397;BME280;1209;48.410;9.054;2023-04-26T00:29:55;96243.63;;;6.75;100.00
2397;BME280;1209;48.410;9.054;2023-04-26T00:32:20;96239.19;;;6.68;100.00
2397;BME280;1209;48.410;9.054;2023-04-26T00:34:45;96243.56;;;6.67;100.00
2397;BME280;1209;48.410;9.054;2023-04-26T00:37:11;96242.81;;;6.57;100.00
2397;BME280;1209;48.410;9.054;2023-04-26T00:39:37;96238.28;;;6.59;100.00
2397;BME280;1209;48.410;9.054;2023-04-26T00:42:02;96237.63;;;6.57;100.00
2397;BME280;1209;48.410;9.054;2023-04-26T00:44:27;96242.09;;;6.47;100.00
2397;BME280;1209;48.410;9.054;2023-04-26T00:46:53;96245.34;;;6.49;100.00
2397;BME280;1209;48.410;9.054;2023-04-26T00:49:22;96236.25;;;6.45;100.00
2397;BME280;1209;48.410;9.054;2023-04-26T00:51:49;96236.91;;;6.47;100.00
2397;BME280;1209;48.410;9.054;2023-04-26T00:54:15;96233.22;;;6.31;100.00
2397;BME280;1209;48.410;9.054;2023-04-26T00:56:42;96240.09;;;6.41;100.00
2397;BME280;1209;48.410;9.054;2023-04-26T00:59:08;96238.63;;;6.38;100.00
2397;BME280;1209;48.410;9.054;2023-04-26T01:01:34;96234.88;;;6.58;100.00
2397;BME280;1209;48.410;9.054;2023-04-26T01:04:00;96233.66;;;6.45;100.00
2397;BME280;1209;48.410;9.054;2023-04-26T01:06:29;96240.25;;;6.39;100.00
2397;BME280;1209;48.410;9.054;2023-04-26T01:08:58;96241.50;;;6.35;100.00
2397;BME280;1209;48.410;9.054;2023-04-26T01:11:24;96248.19;;;6.38;100.00
2397;BME280;1209;48.410;9.054;2023-04-26T01:13:50;96240.75;;;6.43;100.00
2397;BME280;1209;48.410;9.054;2023-04-26T01:16:16;96237.28;;;6.34;100.00
2397;BME280;1209;48.410;9.054;2023-04-26T01:18:49;96246.19;;;6.31;100.00
2397;BME280;1209;48.410;9.054;2023-04-26T01:21:19;96239.50;;;6.29;100.00
2397;BME280;1209;48.410;9.054;2023-04-26T01:23:45;96241.97;;;6.30;100.00
2397;BME280;1209;48.410;9.054;2023-04-26T01:26:11;96253.22;;;6.21;100.00
2397;BME280;1209;48.410;9.054;2023-04-26T01:28:36;96249.81;;;6.21;100.00
2397;BME280;1209;48.410;9.054;2023-04-26T01:31:01;96244.25;;;6.16;100.00
2397;BME280;1209;48.410;9.054;2023-04-26T01:33:27;96246.72;;;6.17;100.00
2397;BME280;1209;48.410;9.054;2023-04-26T01:35:52;96250.38;;;5.97;100.00
2397;BME280;1209;48.410;9.054;2023-04-26T01:38:17;96243.63;;;6.04;100.00
2397;BME280;1209;48.410;9.054;2023-04-26T01:40:44;96248.84;;;6.22;100.00
2397;BME280;1209;48.410;9.054;2023-04-26T01:43:10;96245.19;;;5.97;100.00
2397;BME280;1209;48.410;9.054;2023-04-26T01:45:35;96244.16;;;5.90;100.00
2397;BME280;1209;48.410;9.054;2023-04-26T01:48:00;96239.22;;;5.87;100.00
2397;BME280;1209;48.410;9.054;2023-04-26T01:50:26;96233.94;;;6.06;100.00
2397;BME280;1209;48.410;9.054;2023-04-26T01:52:52;96240.81;;;5.97;100.00
2397;BME280;1209;48.410;9.054;2023-04-26T01:55:17;96244.25;;;6.16;100.00
2397;BME280;1209;48.410;9.054;2023-04-26T01:57:42;96234.97;;;6.13;100.00
2397;BME280;1209;48.410;9.054;2023-04-26T02:00:08;96232.22;;;5.97;100.00
2397;BME280;1209;48.410;9.054;2023-04-26T02:02:34;96233.94;;;6.06;100.00
2397;BME280;1209;48.410;9.054;2023-04-26T02:04:59;96237.72;;;5.94;100.00
2397;BME280;1209;48.410;9.054;2023-04-26T02:07:24;96228.03;;;5.68;100.00
2397;BME280;1209;48.410;9.054;2023-04-26T02:09:50;96223.44;;;5.53;100.00
2397;BME280;1209;48.410;9.054;2023-04-26T02:12:15;96230.56;;;5.51;100.00
2397;BME280;1209;48.410;9.054;2023-04-26T02:14:41;96224.13;;;5.55;100.00
2397;BME280;1209;48.410;9.054;2023-04-26T02:17:06;96223.06;;;5.75;100.00
2397;BME280;1209;48.410;9.054;2023-04-26T02:19:33;96227.97;;;5.51;100.00
2397;BME280;1209;48.410;9.054;2023-04-26T02:21:58;96227.44;;;5.47;100.00
2397;BME280;1209;48.410;9.054;2023-04-26T02:24:24;96228.97;;;5.40;100.00
2397;BME280;1209;48.410;9.054;2023-04-26T02:26:49;96236.06;;;5.65;100.00
2397;BME280;1209;48.410;9.054;2023-04-26T02:29:16;96238.47;;;5.77;100.00
2397;BME280;1209;48.410;9.054;2023-04-26T02:31:41;96232.84;;;5.81;100.00
2397;BME280;1209;48.410;9.054;2023-04-26T02:34:07;96236.56;;;5.79;100.00
2397;BME280;1209;48.410;9.054;2023-04-26T02:36:32;96240.91;;;5.78;100.00
2397;BME280;1209;48.410;9.054;2023-04-26T02:38:58;96237.50;;;5.78;100.00
2397;BME280;1209;48.410;9.054;2023-04-26T02:41:24;96238.19;;;5.80;100.00
2397;BME280;1209;48.410;9.054;2023-04-26T02:43:49;96236.47;;;5.71;100.00
2397;BME280;1209;48.410;9.054;2023-04-26T02:46:15;96238.66;;;5.65;100.00
2397;BME280;1209;48.410;9.054;2023-04-26T02:48:40;96239.47;;;5.66;100.00
2397;BME280;1209;48.410;9.054;2023-04-26T02:51:06;96237.44;;;5.69;100.00
2397;BME280;1209;48.410;9.054;2023-04-26T02:53:31;96230.06;;;5.37;100.00
2397;BME280;1209;48.410;9.054;2023-04-26T02:55:57;96238.41;;;5.31;100.00
2397;BME280;1209;48.410;9.054;2023-04-26T02:58:24;96235.22;;;5.47;100.00
2397;BME280;1209;48.410;9.054;2023-04-26T03:00:50;96241.53;;;5.62;100.00
2397;BME280;1209;48.410;9.054;2023-04-26T03:03:15;96229.31;;;5.55;100.00
2397;BME280;1209;48.410;9.054;2023-04-26T03:05:40;96241.00;;;5.31;100.00
2397;BME280;1209;48.410;9.054;2023-04-26T03:08:06;96234.63;;;5.26;100.00
2397;BME280;1209;48.410;9.054;2023-04-26T03:10:31;96237.88;;;5.28;100.00
2397;BME280;1209;48.410;9.054;2023-04-26T03:12:57;96235.31;;;5.28;100.00
2397;BME280;1209;48.410;9.054;2023-04-26T03:15:22;96238.94;;;5.35;100.00
2397;BME280;1209;48.410;9.054;2023-04-26T03:17:47;96236.97;;;5.47;100.00
2397;BME280;1209;48.410;9.054;2023-04-26T03:20:13;96232.22;;;5.42;100.00
2397;BME280;1209;48.410;9.054;2023-04-26T03:22:38;96232.75;;;5.09;100.00
2397;BME280;1209;48.410;9.054;2023-04-26T03:25:04;96232.25;;;4.95;100.00
2397;BME280;1209;48.410;9.054;2023-04-26T03:27:29;96230.34;;;4.97;100.00
2397;BME280;1209;48.410;9.054;2023-04-26T03:29:55;96236.09;;;4.91;100.00
2397;BME280;1209;48.410;9.054;2023-04-26T03:32:20;96240.91;;;5.14;100.00
2397;BME280;1209;48.410;9.054;2023-04-26T03:34:45;96231.13;;;5.07;100.00
2397;BME280;1209;48.410;9.054;2023-04-26T03:37:12;96236.44;;;5.06;100.00
2397;BME280;1209;48.410;9.054;2023-04-26T03:39:38;96234.47;;;4.90;100.00
2397;BME280;1209;48.410;9.054;2023-04-26T03:42:03;96238.41;;;4.94;100.00
2397;BME280;1209;48.410;9.054;2023-04-26T03:44:28;96228.22;;;4.83;100.00
2397;BME280;1209;48.410;9.054;2023-04-26T03:46:54;96223.88;;;4.74;100.00
2397;BME280;1209;48.410;9.054;2023-04-26T03:49:20;96229.59;;;4.68;100.00
2397;BME280;1209;48.410;9.054;2023-04-26T03:51:46;96221.53;;;4.71;100.00
2397;BME280;1209;48.410;9.054;2023-04-26T03:54:11;96223.19;;;4.62;100.00
2397;BME280;1209;48.410;9.054;2023-04-26T03:56:36;96223.78;;;4.47;100.00
2397;BME280;1209;48.410;9.054;2023-04-26T03:59:02;96223.09;;;4.54;100.00
2397;BME280;1209;48.410;9.054;2023-04-26T04:01:28;96223.59;;;4.67;100.00
2397;BME280;1209;48.410;9.054;2023-04-26T04:03:53;96220.75;;;4.61;100.00
2397;BME280;1209;48.410;9.054;2023-04-26T04:06:18;96220.72;;;4.70;100.00
2397;BME280;1209;48.410;9.054;2023-04-26T04:08:44;96218.44;;;4.58;100.00
2397;BME280;1209;48.410;9.054;2023-04-26T04:11:09;96215.97;;;4.66;100.00
2397;BME280;1209;48.410;9.054;2023-04-26T04:13:34;96217.19;;;4.71;100.00
2397;BME280;1209;48.410;9.054;2023-04-26T04:15:59;96226.06;;;4.79;100.00
2397;BME280;1209;48.410;9.054;2023-04-26T04:18:25;96221.69;;;4.69;100.00
2397;BME280;1209;48.410;9.054;2023-04-26T04:20:50;96223.63;;;4.58;100.00
2397;BME280;1209;48.410;9.054;2023-04-26T04:23:16;96220.06;;;4.68;100.00
2397;BME280;1209;48.410;9.054;2023-04-26T04:25:41;96227.69;;;4.60;100.00
2397;BME280;1209;48.410;9.054;2023-04-26T04:28:08;96227.69;;;4.60;100.00
2397;BME280;1209;48.410;9.054;2023-04-26T04:30:33;96231.13;;;4.41;100.00
2397;BME280;1209;48.410;9.054;2023-04-26T04:32:58;96233.44;;;4.35;100.00
2397;BME280;1209;48.410;9.054;2023-04-26T04:35:24;96236.84;;;4.35;100.00
2397;BME280;1209;48.410;9.054;2023-04-26T04:37:54;96239.94;;;4.58;100.00
2397;BME280;1209;48.410;9.054;2023-04-26T04:40:21;96242.94;;;4.63;100.00
2397;BME280;1209;48.410;9.054;2023-04-26T04:42:46;96244.72;;;4.63;100.00
2397;BME280;1209;48.410;9.054;2023-04-26T04:45:11;96253.13;;;4.65;100.00
2397;BME280;1209;48.410;9.054;2023-04-26T04:47:37;96246.34;;;4.54;100.00
2397;BME280;1209;48.410;9.054;2023-04-26T04:50:07;96245.69;;;4.42;100.00
2397;BME280;1209;48.410;9.054;2023-04-26T04:52:32;96241.34;;;4.33;100.00
2397;BME280;1209;48.410;9.054;2023-04-26T04:54:58;96245.97;;;4.39;100.00
2397;BME280;1209;48.410;9.054;2023-04-26T04:57:24;96252.75;;;4.50;100.00
2397;BME280;1209;48.410;9.054;2023-04-26T04:59:49;96248.94;;;4.45;100.00
2397;BME280;1209;48.410;9.054;2023-04-26T05:02:15;96258.75;;;4.31;100.00
2397;BME280;1209;48.410;9.054;2023-04-26T05:04:40;96253.31;;;4.34;100.00
2397;BME280;1209;48.410;9.054;2023-04-26T05:07:06;96254.53;;;4.40;100.00
2397;BME280;1209;48.410;9.054;2023-04-26T05:09:31;96269.75;;;4.62;100.00
2397;BME280;1209;48.410;9.054;2023-04-26T05:11:57;96251.66;;;4.62;100.00
2397;BME280;1209;48.410;9.054;2023-04-26T05:14:22;96263.50;;;4.46;100.00
2397;BME280;1209;48.410;9.054;2023-04-26T05:16:47;96251.66;;;4.53;100.00
2397;BME280;1209;48.410;9.054;2023-04-26T05:19:12;96263.22;;;4.58;100.00
2397;BME280;1209;48.410;9.054;2023-04-26T05:21:38;96263.47;;;4.65;100.00
2397;BME280;1209;48.410;9.054;2023-04-26T05:24:03;96268.09;;;4.71;100.00
2397;BME280;1209;48.410;9.054;2023-04-26T05:26:29;96272.59;;;4.69;100.00
2397;BME280;1209;48.410;9.054;2023-04-26T05:28:54;96278.88;;;4.66;100.00
2397;BME280;1209;48.410;9.054;2023-04-26T05:31:20;96285.13;;;4.83;100.00
2397;BME280;1209;48.410;9.054;2023-04-26T05:33:45;96280.75;;;4.93;100.00
2397;BME280;1209;48.410;9.054;2023-04-26T05:36:11;96278.56;;;4.98;100.00
2397;BME280;1209;48.410;9.054;2023-04-26T05:38:36;96283.72;;;4.98;100.00
2397;BME280;1209;48.410;9.054;2023-04-26T05:41:02;96290.31;;;4.83;100.00
2397;BME280;1209;48.410;9.054;2023-04-26T05:43:27;96291.09;;;4.93;100.00
2397;BME280;1209;48.410;9.054;2023-04-26T05:45:54;96295.59;;;4.91;100.00
2397;BME280;1209;48.410;9.054;2023-04-26T05:48:20;96297.53;;;4.80;100.00
2397;BME280;1209;48.410;9.054;2023-04-26T05:50:47;96291.50;;;4.89;100.00
2397;BME280;1209;48.410;9.054;2023-04-26T05:53:12;96290.38;;;5.11;100.00
2397;BME280;1209;48.410;9.054;2023-04-26T05:55:37;96294.22;;;4.97;100.00
2397;BME280;1209;48.410;9.054;2023-04-26T05:58:03;96292.56;;;5.05;100.00
2397;BME280;1209;48.410;9.054;2023-04-26T06:00:29;96294.44;;;5.23;100.00
2397;BME280;1209;48.410;9.054;2023-04-26T06:02:54;96300.69;;;5.30;100.00
2397;BME280;1209;48.410;9.054;2023-04-26T06:05:20;96293.50;;;5.24;100.00
2397;BME280;1209;48.410;9.054;2023-04-26T06:07:45;96300.66;;;5.40;100.00
2397;BME280;1209;48.410;9.054;2023-04-26T06:10:10;96300.97;;;5.64;100.00
2397;BME280;1209;48.410;9.054;2023-04-26T06:12:37;96307.25;;;5.61;100.00
2397;BME280;1209;48.410;9.054;2023-04-26T06:15:03;96297.50;;;5.83;100.00
2397;BME280;1209;48.410;9.054;2023-04-26T06:17:28;96304.88;;;5.78;100.00
2397;BME280;1209;48.410;9.054;2023-04-26T06:19:54;96306.50;;;6.06;100.00
2397;BME280;1209;48.410;9.054;2023-04-26T06:22:20;96311.47;;;6.27;100.00
2397;BME280;1209;48.410;9.054;2023-04-26T06:24:45;96310.56;;;6.36;100.00
2397;BME280;1209;48.410;9.054;2023-04-26T06:27:10;96314.13;;;6.53;100.00
2397;BME280;1209;48.410;9.054;2023-04-26T06:29:36;96316.38;;;6.66;100.00
2397;BME280;1209;48.410;9.054;2023-04-26T06:32:01;96316.34;;;6.83;100.00
2397;BME280;1209;48.410;9.054;2023-04-26T06:34:26;96321.03;;;6.80;100.00
2397;BME280;1209;48.410;9.054;2023-04-26T06:36:52;96316.06;;;6.69;100.00
2397;BME280;1209;48.410;9.054;2023-04-26T06:39:17;96315.75;;;6.89;100.00
2397;BME280;1209;48.410;9.054;2023-04-26T06:41:43;96317.22;;;6.92;100.00
2397;BME280;1209;48.410;9.054;2023-04-26T06:44:08;96310.38;;;7.09;100.00
2397;BME280;1209;48.410;9.054;2023-04-26T06:46:33;96312.25;;;6.99;100.00
2397;BME280;1209;48.410;9.054;2023-04-26T06:49:00;96310.38;;;7.09;100.00
2397;BME280;1209;48.410;9.054;2023-04-26T06:51:25;96317.44;;;6.99;100.00
2397;BME280;1209;48.410;9.054;2023-04-26T06:53:51;96317.78;;;7.04;100.00
2397;BME280;1209;48.410;9.054;2023-04-26T06:56:16;96313.75;;;6.83;100.00
2397;BME280;1209;48.410;9.054;2023-04-26T06:58:57;96316.63;;;6.98;100.00
2397;BME280;1209;48.410;9.054;2023-04-26T07:01:23;96322.31;;;7.19;100.00
2397;BME280;1209;48.410;9.054;2023-04-26T07:03:48;96308.88;;;7.24;100.00
2397;BME280;1209;48.410;9.054;2023-04-26T07:06:14;96308.97;;;7.14;100.00
2397;BME280;1209;48.410;9.054;2023-04-26T07:08:39;96302.28;;;7.38;100.00
2397;BME280;1209;48.410;9.054;2023-04-26T07:11:09;96290.97;;;7.47;100.00
2397;BME280;1209;48.410;9.054;2023-04-26T07:13:34;96302.75;;;7.59;100.00
2397;BME280;1209;48.410;9.054;2023-04-26T07:16:00;96292.44;;;7.83;100.00
2397;BME280;1209;48.410;9.054;2023-04-26T07:18:25;96304.75;;;8.15;100.00
2397;BME280;1209;48.410;9.054;2023-04-26T07:20:50;96295.88;;;8.34;100.00
2397;BME280;1209;48.410;9.054;2023-04-26T07:23:16;96287.63;;;8.55;100.00
2397;BME280;1209;48.410;9.054;2023-04-26T07:25:41;96294.97;;;8.60;100.00
2397;BME280;1209;48.410;9.054;2023-04-26T07:28:06;96290.03;;;8.48;100.00
2397;BME280;1209;48.410;9.054;2023-04-26T07:30:32;96285.16;;;8.37;100.00
2397;BME280;1209;48.410;9.054;2023-04-26T07:32:58;96286.56;;;8.15;100.00
2397;BME280;1209;48.410;9.054;2023-04-26T07:35:23;96282.16;;;8.16;100.00
2397;BME280;1209;48.410;9.054;2023-04-26T07:37:48;96280.28;;;8.50;100.00
2397;BME280;1209;48.410;9.054;2023-04-26T07:40:14;96274.78;;;8.94;100.00
2397;BME280;1209;48.410;9.054;2023-04-26T07:42:39;96273.16;;;8.93;100.00
2397;BME280;1209;48.410;9.054;2023-04-26T07:45:05;96262.59;;;9.03;100.00
2397;BME280;1209;48.410;9.054;2023-04-26T07:47:30;96268.53;;;9.36;100.00
2397;BME280;1209;48.410;9.054;2023-04-26T07:49:56;96275.16;;;9.63;100.00
2397;BME280;1209;48.410;9.054;2023-04-26T07:52:21;96269.44;;;9.67;100.00
2397;BME280;1209;48.410;9.054;2023-04-26T07:54:46;96274.34;;;10.01;100.00
2397;BME280;1209;48.410;9.054;2023-04-26T07:57:12;96274.94;;;10.12;100.00
2397;BME280;1209;48.410;9.054;2023-04-26T07:59:37;96265.25;;;10.28;100.00
2397;BME280;1209;48.410;9.054;2023-04-26T08:02:02;96270.00;;;10.25;100.00
2397;BME280;1209;48.410;9.054;2023-04-26T08:04:32;96269.69;;;10.51;100.00
2397;BME280;1209;48.410;9.054;2023-04-26T08:06:59;96277.41;;;10.67;100.00
2397;BME280;1209;48.410;9.054;2023-04-26T08:09:26;96267.34;;;10.33;100.00
2397;BME280;1209;48.410;9.054;2023-04-26T08:11:51;96268.03;;;10.27;100.00
2397;BME280;1209;48.410;9.054;2023-04-26T08:14:17;96271.91;;;10.31;100.00
2397;BME280;1209;48.410;9.054;2023-04-26T08:16:42;96270.81;;;9.86;100.00
2397;BME280;1209;48.410;9.054;2023-04-26T08:19:08;96279.63;;;10.24;100.00
2397;BME280;1209;48.410;9.054;2023-04-26T08:21:33;96278.69;;;10.48;100.00
2397;BME280;1209;48.410;9.054;2023-04-26T08:23:59;96284.38;;;10.21;100.00
2397;BME280;1209;48.410;9.054;2023-04-26T08:26:24;96279.22;;;10.44;100.00
2397;BME280;1209;48.410;9.054;2023-04-26T08:28:49;96293.47;;;10.56;100.00
2397;BME280;1209;48.410;9.054;2023-04-26T08:31:15;96284.63;;;10.03;100.00
2397;BME280;1209;48.410;9.054;2023-04-26T08:33:40;96285.91;;;10.38;100.00
2397;BME280;1209;48.410;9.054;2023-04-26T08:36:06;96292.44;;;10.65;100.00
2397;BME280;1209;48.410;9.054;2023-04-26T08:38:31;96294.22;;;10.64;100.00
2397;BME280;1209;48.410;9.054;2023-04-26T08:40:58;96295.72;;;10.82;100.00
2397;BME280;1209;48.410;9.054;2023-04-26T08:43:29;96302.75;;;11.04;100.00
2397;BME280;1209;48.410;9.054;2023-04-26T08:45:54;96293.28;;;11.41;100.00
2397;BME280;1209;48.410;9.054;2023-04-26T08:48:21;96292.84;;;11.52;100.00
2397;BME280;1209;48.410;9.054;2023-04-26T08:50:47;96284.19;;;11.81;100.00
2397;BME280;1209;48.410;9.054;2023-04-26T08:53:14;96296.94;;;11.98;100.00
2397;BME280;1209;48.410;9.054;2023-04-26T08:55:46;96288.41;;;11.67;100.00
2397;BME280;1209;48.410;9.054;2023-04-26T08:58:12;96293.72;;;11.74;100.00
2397;BME280;1209;48.410;9.054;2023-04-26T09:00:38;96293.50;;;11.98;99.96
2397;BME280;1209;48.410;9.054;2023-04-26T09:03:03;96295.78;;;12.37;100.00
2397;BME280;1209;48.410;9.054;2023-04-26T09:05:29;96295.28;;;12.48;97.74
2397;BME280;1209;48.410;9.054;2023-04-26T09:07:59;96289.94;;;12.56;96.42
2397;BME280;1209;48.410;9.054;2023-04-26T09:10:26;96299.28;;;12.44;95.52
2397;BME280;1209;48.410;9.054;2023-04-26T09:12:52;96299.59;;;12.35;97.66
2397;BME280;1209;48.410;9.054;2023-04-26T09:15:20;96297.97;;;12.19;95.26
2397;BME280;1209;48.410;9.054;2023-04-26T09:17:47;96298.56;;;12.00;93.00
2397;BME280;1209;48.410;9.054;2023-04-26T09:20:23;96287.06;;;12.51;92.00
2397;BME280;1209;48.410;9.054;2023-04-26T09:22:51;96294.91;;;12.30;90.15
2397;BME280;1209;48.410;9.054;2023-04-26T09:25:19;96297.06;;;12.84;80.15
2397;BME280;1209;48.410;9.054;2023-04-26T09:27:50;96288.97;;;12.79;81.31
2397;BME280;1209;48.410;9.054;2023-04-26T09:30:17;96288.66;;;12.88;83.95
2397;BME280;1209;48.410;9.054;2023-04-26T09:32:52;96285.13;;;12.24;88.50
2397;BME280;1209;48.410;9.054;2023-04-26T09:38:06;96291.66;;;12.13;91.21
2397;BME280;1209;48.410;9.054;2023-04-26T09:40:36;96284.63;;;11.55;97.68
2397;BME280;1209;48.410;9.054;2023-04-26T09:43:04;96281.03;;;11.56;96.27
2397;BME280;1209;48.410;9.054;2023-04-26T09:45:32;96282.00;;;11.40;97.95
2397;BME280;1209;48.410;9.054;2023-04-26T09:48:20;96279.63;;;11.16;100.00
2397;BME280;1209;48.410;9.054;2023-04-26T09:50:47;96277.09;;;11.08;100.00
2397;BME280;1209;48.410;9.054;2023-04-26T09:53:37;96279.53;;;11.09;100.00
2397;BME280;1209;48.410;9.054;2023-04-26T09:56:10;96271.53;;;11.70;97.67
2397;BME280;1209;48.410;9.054;2023-04-26T09:58:38;96273.81;;;12.02;98.85
2397;BME280;1209;48.410;9.054;2023-04-26T10:01:06;96273.41;;;12.56;94.16
2397;BME280;1209;48.410;9.054;2023-04-26T10:03:33;96275.09;;;12.64;90.08
2397;BME280;1209;48.410;9.054;2023-04-26T10:05:59;96269.25;;;13.11;85.32
2397;BME280;1209;48.410;9.054;2023-04-26T10:08:24;96264.78;;;12.62;91.14
2397;BME280;1209;48.410;9.054;2023-04-26T10:10:50;96267.03;;;12.65;89.20
2397;BME280;1209;48.410;9.054;2023-04-26T10:13:17;96256.13;;;12.83;89.69
2397;BME280;1209;48.410;9.054;2023-04-26T10:15:44;96256.84;;;13.19;94.18
2397;BME280;1209;48.410;9.054;2023-04-26T10:18:10;96271.03;;;13.60;79.23
2397;BME280;1209;48.410;9.054;2023-04-26T10:20:39;96259.03;;;14.20;80.67
2397;BME280;1209;48.410;9.054;2023-04-26T10:23:12;96253.59;;;13.45;76.56
2397;BME280;1209;48.410;9.054;2023-04-26T10:25:41;96261.75;;;13.57;79.24
2397;BME280;1209;48.410;9.054;2023-04-26T10:28:06;96249.69;;;14.71;72.16
2397;BME280;1209;48.410;9.054;2023-04-26T10:30:32;96246.03;;;15.05;71.00
2397;BME280;1209;48.410;9.054;2023-04-26T10:33:17;96248.47;;;14.80;71.37
2397;BME280;1209;48.410;9.054;2023-04-26T10:36:02;96255.69;;;14.52;72.98
2397;BME280;1209;48.410;9.054;2023-04-26T10:38:28;96251.31;;;14.11;75.01
2397;BME280;1209;48.410;9.054;2023-04-26T10:40:54;96248.00;;;13.55;78.62
2397;BME280;1209;48.410;9.054;2023-04-26T10:43:27;96251.25;;;13.57;79.79
2397;BME280;1209;48.410;9.054;2023-04-26T10:45:52;96245.38;;;13.90;76.46
2397;BME280;1209;48.410;9.054;2023-04-26T10:48:23;96246.13;;;13.77;76.18
2397;BME280;1209;48.410;9.054;2023-04-26T11:01:33;96243.84;;;12.83;82.43
2397;BME280;1209;48.410;9.054;2023-04-26T11:06:25;96242.66;;;12.86;80.63
2397;BME280;1209;48.410;9.054;2023-04-26T11:08:51;96236.25;;;13.44;75.54
2397;BME280;1209;48.410;9.054;2023-04-26T11:11:17;96236.75;;;13.68;71.87
2397;BME280;1209;48.410;9.054;2023-04-26T11:13:46;96238.94;;;13.99;77.94
2397;BME280;1209;48.410;9.054;2023-04-26T11:16:15;96232.06;;;13.98;72.54
2397;BME280;1209;48.410;9.054;2023-04-26T11:18:43;96230.38;;;14.38;70.49
2397;BME280;1209;48.410;9.054;2023-04-26T11:21:09;96225.94;;;13.77;78.55
2397;BME280;1209;48.410;9.054;2023-04-26T11:23:35;96222.53;;;13.83;81.33
2397;BME280;1209;48.410;9.054;2023-04-26T11:26:02;96223.97;;;13.93;71.00
2397;BME280;1209;48.410;9.054;2023-04-26T11:28:29;96223.72;;;14.42;67.95
2397;BME280;1209;48.410;9.054;2023-04-26T11:30:55;96226.47;;;14.14;67.38
2397;BME280;1209;48.410;9.054;2023-04-26T11:33:21;96221.16;;;13.94;65.58
2397;BME280;1209;48.410;9.054;2023-04-26T11:35:48;96215.78;;;13.68;66.42
2397;BME280;1209;48.410;9.054;2023-04-26T11:38:14;96217.09;;;14.46;65.67
2397;BME280;1209;48.410;9.054;2023-04-26T11:40:40;96211.97;;;14.25;59.28
2397;BME280;1209;48.410;9.054;2023-04-26T11:43:06;96208.03;;;13.94;61.29
2397;BME280;1209;48.410;9.054;2023-04-26T11:45:33;96200.59;;;14.17;68.60
2397;BME280;1209;48.410;9.054;2023-04-26T11:48:00;96196.06;;;15.12;65.27
2397;BME280;1209;48.410;9.054;2023-04-26T11:50:27;96196.50;;;14.96;62.55
2397;BME280;1209;48.410;9.054;2023-04-26T11:52:54;96190.94;;;15.63;57.96
2397;BME280;1209;48.410;9.054;2023-04-26T11:55:23;96187.66;;;15.74;58.02
2397;BME280;1209;48.410;9.054;2023-04-26T11:57:51;96185.16;;;15.02;58.08
2397;BME280;1209;48.410;9.054;2023-04-26T12:00:17;96179.69;;;15.88;60.29
2397;BME280;1209;48.410;9.054;2023-04-26T12:02:45;96168.56;;;15.86;61.73
2397;BME280;1209;48.410;9.054;2023-04-26T12:05:19;96171.16;;;15.34;62.55
2397;BME280;1209;48.410;9.054;2023-04-26T12:07:48;96179.78;;;15.55;63.81
2397;BME280;1209;48.410;9.054;2023-04-26T12:10:15;96182.84;;;15.45;58.33
2397;BME280;1209;48.410;9.054;2023-04-26T12:12:46;96173.84;;;15.86;56.09
2397;BME280;1209;48.410;9.054;2023-04-26T12:15:12;96172.06;;;16.18;59.04
2397;BME280;1209;48.410;9.054;2023-04-26T12:17:37;96176.78;;;16.41;57.67
2397;BME280;1209;48.410;9.054;2023-04-26T12:20:09;96169.69;;;16.10;56.09
2397;BME280;1209;48.410;9.054;2023-04-26T12:22:35;96175.22;;;15.24;59.25
2397;BME280;1209;48.410;9.054;2023-04-26T12:25:04;96179.91;;;14.89;59.84
2397;BME280;1209;48.410;9.054;2023-04-26T12:27:30;96177.25;;;15.08;60.20
2397;BME280;1209;48.410;9.054;2023-04-26T12:29:56;96172.00;;;15.15;58.35
2397;BME280;1209;48.410;9.054;2023-04-26T12:32:21;96173.81;;;15.21;61.58
2397;BME280;1209;48.410;9.054;2023-04-26T12:34:47;96172.91;;;15.60;56.06
2397;BME280;1209;48.410;9.054;2023-04-26T12:37:12;96164.53;;;16.21;57.46
2397;BME280;1209;48.410;9.054;2023-04-26T12:39:38;96165.97;;;15.79;57.12
2397;BME280;1209;48.410;9.054;2023-04-26T12:42:03;96168.56;;;15.15;56.65
2397;BME280;1209;48.410;9.054;2023-04-26T12:44:28;96162.78;;;15.51;58.23
2397;BME280;1209;48.410;9.054;2023-04-26T12:46:54;96163.72;;;16.52;56.71
2397;BME280;1209;48.410;9.054;2023-04-26T12:49:19;96160.50;;;17.43;51.80
2397;BME280;1209;48.410;9.054;2023-04-26T12:51:44;96162.56;;;17.41;51.41
2397;BME280;1209;48.410;9.054;2023-04-26T12:54:10;96161.19;;;16.01;50.79
2397;BME280;1209;48.410;9.054;2023-04-26T12:56:35;96145.34;;;15.56;52.89
2397;BME280;1209;48.410;9.054;2023-04-26T12:59:04;96141.81;;;15.31;57.27
2397;BME280;1209;48.410;9.054;2023-04-26T13:01:30;96142.34;;;15.59;57.00
2397;BME280;1209;48.410;9.054;2023-04-26T13:03:55;96155.84;;;15.76;55.50
2397;BME280;1209;48.410;9.054;2023-04-26T13:06:23;96145.75;;;16.43;53.90
2397;BME280;1209;48.410;9.054;2023-04-26T13:08:48;96151.59;;;16.76;56.20
2397;BME280;1209;48.410;9.054;2023-04-26T13:11:14;96144.81;;;16.55;52.72
2397;BME280;1209;48.410;9.054;2023-04-26T13:13:40;96143.41;;;16.84;53.28
2397;BME280;1209;48.410;9.054;2023-04-26T13:16:06;96145.25;;;17.45;49.90
2397;BME280;1209;48.410;9.054;2023-04-26T13:18:31;96142.44;;;17.95;55.96
2397;BME280;1209;48.410;9.054;2023-04-26T13:20:56;96143.09;;;17.90;53.01
2397;BME280;1209;48.410;9.054;2023-04-26T13:23:22;96143.13;;;16.92;51.64
2397;BME280;1209;48.410;9.054;2023-04-26T13:25:47;96139.63;;;17.60;51.57
2397;BME280;1209;48.410;9.054;2023-04-26T13:28:12;96141.66;;;17.76;52.35
2397;BME280;1209;48.410;9.054;2023-04-26T13:30:37;96145.72;;;18.09;51.36